Hunter, Kansas
Current Conditions -  °F | °C
As of 8:53 AM on Sunday 23 Nov 2014 (Local Time) from KRSL Reporting Station
Overcast Overcast  
Wind Chill: 42°   Ceiling: 2800
Heat Index: 49°   Visibility: 10mi
Dew Point: 40°   Wind: 23mph
Humidity: 71%   Direction: 350°N
Pressure: 29.5"   Gusts: 29mph
Location:  39.23°N, 98.4°W
Report Text: KRSL 231453Z AUTO 35020G25KT 10SM FEW014 BKN028 OVC042 09/04 A2950 RMK AO2 PK WND 34029/1441 SLP988 T00940044 53020
Loading
Personal Weather Stations






























Interactive Weather Map New forecast layout! Learn more

10-Day Weather Forecast

Advertisements
Track Severe Weather on mobile